Time;durP1;ratioP1;P1;durP2;ratioP2;P2;SDS_P1;SDS_P2;PMS_P1;PMS_P2;Temp;Humidity;BMP_temperature;BMP_pressure;BME280_temperature;BME280_humidity;BME280_pressure;Samples;Min_cycle;Max_cycle;Signal;HPM_P1;HPM_P2
2023/06/05 00:00:19;;;;;;;14.20;11.63;;;;;;;17.14;100.00;95324.66;5052903;28;20481;-78
2023/06/05 00:02:46;;;;;;;13.10;11.90;;;;;;;17.09;100.00;95324.31;5018207;28;20937;-78
2023/06/05 00:05:12;;;;;;;15.37;12.73;;;;;;;17.08;100.00;95317.34;5052814;28;20536;-78
2023/06/05 00:07:39;;;;;;;14.83;11.17;;;;;;;17.06;100.00;95322.81;5052897;28;20456;-78
2023/06/05 00:10:09;;;;;;;18.53;11.43;;;;;;;17.05;100.00;95326.41;5053313;28;20524;-80
2023/06/05 00:12:37;;;;;;;14.00;11.33;;;;;;;17.02;100.00;95324.09;5018080;28;20552;-79
2023/06/05 00:15:04;;;;;;;11.97;10.40;;;;;;;17.02;100.00;95329.38;5052657;28;20865;-80
2023/06/05 00:17:31;;;;;;;12.37;9.80;;;;;;;16.97;100.00;95327.22;5016553;28;20536;-80
2023/06/05 00:19:59;;;;;;;13.60;9.70;;;;;;;16.96;100.00;95330.03;5052134;28;20942;-80
2023/06/05 00:22:27;;;;;;;10.73;9.63;;;;;;;16.96;100.00;95330.03;5052879;28;20521;-80
2023/06/05 00:24:53;;;;;;;11.60;10.40;;;;;;;16.98;100.00;95336.00;5052721;28;20972;-80
2023/06/05 00:27:21;;;;;;;11.07;8.60;;;;;;;16.95;100.00;95331.03;5052866;28;20503;-79
2023/06/05 00:29:48;;;;;;;10.37;9.37;;;;;;;16.93;100.00;95331.19;5053137;28;20961;-80
2023/06/05 00:32:15;;;;;;;12.50;8.47;;;;;;;16.94;100.00;95332.00;5056673;28;20447;-80
2023/06/05 00:34:42;;;;;;;9.20;8.40;;;;;;;16.88;100.00;95330.00;5056776;28;20505;-80
2023/06/05 00:37:09;;;;;;;10.07;9.07;;;;;;;16.85;100.00;95327.66;5056740;28;20460;-80
2023/06/05 00:39:36;;;;;;;9.70;8.20;;;;;;;16.84;100.00;95328.66;5056829;28;20449;-80
2023/06/05 00:42:03;;;;;;;12.67;9.00;;;;;;;16.86;100.00;95324.84;5056850;28;20553;-79
2023/06/05 00:44:31;;;;;;;17.17;10.03;;;;;;;16.83;100.00;95324.34;5056532;28;20577;-80
2023/06/05 00:46:59;;;;;;;11.63;7.37;;;;;;;16.83;100.00;95333.13;5056438;28;20498;-80
2023/06/05 00:49:26;;;;;;;14.90;9.27;;;;;;;16.80;100.00;95325.50;5056676;28;20799;-80
2023/06/05 00:51:52;;;;;;;9.43;7.97;;;;;;;16.80;100.00;95322.00;5056510;28;20985;-79
2023/06/05 00:54:20;;;;;;;13.27;9.43;;;;;;;16.81;100.00;95321.03;5056324;28;20441;-79
2023/06/05 00:56:48;;;;;;;9.63;8.73;;;;;;;16.82;100.00;95309.44;5056341;28;21031;-79
2023/06/05 00:59:16;;;;;;;9.53;8.63;;;;;;;16.80;100.00;95311.41;5056302;28;20449;-80
2023/06/05 01:01:45;;;;;;;10.00;8.60;;;;;;;16.80;100.00;95312.25;5056635;28;20492;-79
2023/06/05 01:04:12;;;;;;;11.57;10.37;;;;;;;16.80;100.00;95299.00;5056234;28;20534;-80
2023/06/05 01:06:40;;;;;;;12.77;10.17;;;;;;;16.83;100.00;95292.53;5055893;28;20452;-79
2023/06/05 01:09:08;;;;;;;12.47;9.60;;;;;;;16.85;100.00;95301.16;5037566;28;20469;-80
2023/06/05 01:11:41;;;;;;;10.80;8.70;;;;;;;16.84;100.00;95294.19;5056444;28;20450;-80
2023/06/05 01:14:16;;;;;;;11.90;10.07;;;;;;;16.79;100.00;95296.50;5056056;28;20449;-80
2023/06/05 01:16:48;;;;;;;14.13;9.40;;;;;;;16.83;100.00;95295.19;5056555;28;20462;-80
2023/06/05 01:19:16;;;;;;;11.00;9.80;;;;;;;16.86;100.00;95293.03;5056180;28;20454;-80
2023/06/05 01:21:43;;;;;;;11.10;9.90;;;;;;;16.89;100.00;95297.19;5037212;28;20482;-80
2023/06/05 01:24:13;;;;;;;14.23;10.23;;;;;;;16.88;100.00;95295.53;5020660;28;20434;-80
2023/06/05 01:26:52;;;;;;;13.73;9.87;;;;;;;16.84;100.00;95292.38;5056121;28;20450;-80
2023/06/05 01:29:24;;;;;;;11.37;10.17;;;;;;;16.85;100.00;95285.25;5055864;28;20538;-80
2023/06/05 01:31:56;;;;;;;10.37;9.47;;;;;;;16.84;100.00;95286.25;5055642;28;20468;-80
2023/06/05 01:34:24;;;;;;;12.47;11.17;;;;;;;16.81;100.00;95284.75;5055482;28;21057;-80
2023/06/05 01:36:52;;;;;;;10.43;9.33;;;;;;;16.81;100.00;95281.25;5055908;28;20506;-79
2023/06/05 01:39:22;;;;;;;14.33;11.70;;;;;;;16.83;100.00;95287.22;5055599;28;21077;-80
2023/06/05 01:41:50;;;;;;;11.70;10.60;;;;;;;16.85;100.00;95291.38;5054616;28;20466;-80
2023/06/05 01:44:18;;;;;;;13.30;11.23;;;;;;;16.81;100.00;95290.03;5055581;28;21050;-80
2023/06/05 01:46:44;;;;;;;14.87;10.77;;;;;;;16.80;100.00;95285.72;5055377;28;20528;-80
2023/06/05 01:49:13;;;;;;;21.03;11.20;;;;;;;16.79;100.00;95281.44;5055713;28;20452;-80
2023/06/05 01:51:39;;;;;;;16.87;11.00;;;;;;;16.70;100.00;95282.34;5055312;28;20453;-80
2023/06/05 01:54:07;;;;;;;19.20;11.33;;;;;;;16.63;100.00;95273.34;5054207;28;20446;-80
2023/06/05 01:56:36;;;;;;;13.47;11.00;;;;;;;16.62;100.00;95272.50;5054630;28;20450;-80
2023/06/05 01:59:06;;;;;;;12.77;10.77;;;;;;;16.62;100.00;95269.88;5020260;28;21092;-80
2023/06/05 02:01:34;;;;;;;19.47;11.93;;;;;;;16.64;100.00;95278.50;5055082;28;20521;-80
2023/06/05 02:04:04;;;;;;;11.53;10.43;;;;;;;16.62;100.00;95285.75;5055200;28;20979;-80
2023/06/05 02:06:41;;;;;;;13.07;11.10;;;;;;;16.58;100.00;95279.13;5054990;28;20453;-80
2023/06/05 02:09:10;;;;;;;11.97;10.67;;;;;;;16.46;100.00;95275.06;5055234;28;20446;-80
2023/06/05 02:11:38;;;;;;;14.13;11.70;;;;;;;16.33;100.00;95272.84;5055255;28;20567;-79
2023/06/05 02:14:06;;;;;;;16.33;11.17;;;;;;;16.34;100.00;95271.84;5054774;28;20503;-80
2023/06/05 02:16:33;;;;;;;11.57;10.40;;;;;;;16.36;100.00;95267.22;5036048;28;20528;-80
2023/06/05 02:19:03;;;;;;;13.53;11.60;;;;;;;16.40;100.00;95265.09;5054903;28;20449;-80
2023/06/05 02:21:32;;;;;;;13.73;10.97;;;;;;;16.41;100.00;95264.09;5054769;28;20893;-80
2023/06/05 02:23:59;;;;;;;12.27;11.07;;;;;;;16.42;100.00;95263.13;5054569;28;20549;-80
2023/06/05 02:26:26;;;;;;;12.20;10.90;;;;;;;16.32;100.00;95273.00;5054855;28;20450;-81
2023/06/05 02:28:55;;;;;;;13.93;12.53;;;;;;;16.32;100.00;95273.00;5054808;28;20445;-80
2023/06/05 02:31:24;;;;;;;13.00;11.60;;;;;;;16.29;100.00;95274.16;5054497;28;20503;-79
2023/06/05 02:33:52;;;;;;;16.00;12.40;;;;;;;16.18;100.00;95274.38;5054798;28;20441;-80
2023/06/05 02:36:19;;;;;;;12.90;10.87;;;;;;;16.09;100.00;95275.31;5054725;28;20546;-80
2023/06/05 02:38:48;;;;;;;15.63;13.47;;;;;;;15.94;100.00;95275.06;5054265;28;20452;-80
2023/06/05 02:41:15;;;;;;;13.93;11.03;;;;;;;15.94;100.00;95277.69;5054574;28;20588;-80
2023/06/05 02:43:42;;;;;;;17.03;11.90;;;;;;;16.02;100.00;95282.22;5054811;28;20468;-80
2023/06/05 02:46:10;;;;;;;11.93;10.63;;;;;;;15.98;100.00;95279.06;5019489;28;20465;-80
2023/06/05 02:48:37;;;;;;;17.40;12.77;;;;;;;15.91;100.00;95280.66;5054476;28;21215;-80
2023/06/05 02:51:06;;;;;;;17.70;12.87;;;;;;;15.91;100.00;95267.41;5054221;28;20456;-79
2023/06/05 02:53:33;;;;;;;15.13;12.47;;;;;;;15.89;100.00;95277.31;5053943;28;20460;-79
2023/06/05 02:56:01;;;;;;;13.87;11.80;;;;;;;15.94;100.00;95276.88;5019289;28;20458;-79
2023/06/05 02:58:28;;;;;;;16.37;12.23;;;;;;;15.94;100.00;95280.34;5054054;28;20444;-80
2023/06/05 03:00:55;;;;;;;16.57;11.50;;;;;;;15.97;100.00;95285.31;5053736;28;20931;-79
2023/06/05 03:03:25;;;;;;;16.13;11.47;;;;;;;15.95;100.00;95287.31;5054223;28;20499;-79
2023/06/05 03:05:52;;;;;;;15.30;11.40;;;;;;;15.96;100.00;95278.38;5054141;28;20448;-79
2023/06/05 03:08:19;;;;;;;13.37;11.53;;;;;;;16.02;100.00;95283.03;5053605;28;20442;-79
2023/06/05 03:10:46;;;;;;;20.43;12.10;;;;;;;16.06;100.00;95284.41;5054112;28;20454;-79
2023/06/05 03:13:13;;;;;;;16.20;11.57;;;;;;;16.09;100.00;95286.72;5053786;28;20447;-79
2023/06/05 03:15:40;;;;;;;12.43;11.10;;;;;;;16.18;100.00;95286.78;5053842;28;20491;-79
2023/06/05 03:18:07;;;;;;;12.93;11.60;;;;;;;16.23;100.00;95292.47;5053933;28;20531;-79
2023/06/05 03:20:36;;;;;;;14.40;12.27;;;;;;;16.31;100.00;95293.34;5054015;28;20442;-79
2023/06/05 03:23:02;;;;;;;21.20;11.53;;;;;;;16.42;100.00;95289.59;5053768;28;20485;-79
2023/06/05 03:25:29;;;;;;;15.70;13.57;;;;;;;16.56;100.00;95286.41;5053229;28;20448;-80
2023/06/05 03:27:56;;;;;;;18.80;13.80;;;;;;;16.77;100.00;95291.34;5052524;28;20446;-79
2023/06/05 03:30:23;;;;;;;15.03;11.70;;;;;;;17.01;100.00;95298.56;5053719;28;20449;-80
2023/06/05 03:32:50;;;;;;;16.07;12.17;;;;;;;17.23;100.00;95292.69;5053602;28;20925;-80
2023/06/05 03:35:17;;;;;;;14.10;11.90;;;;;;;17.44;100.00;95297.56;5053954;28;20443;-80
2023/06/05 03:37:45;;;;;;;15.40;11.60;;;;;;;17.70;100.00;95305.44;5053599;28;20553;-79
2023/06/05 03:40:13;;;;;;;15.20;12.27;;;;;;;17.99;100.00;95301.50;5053650;28;20452;-80
2023/06/05 03:42:39;;;;;;;16.43;10.60;;;;;;;18.30;99.78;95307.81;5053500;28;20471;-80
2023/06/05 03:45:08;;;;;;;13.37;11.70;;;;;;;18.61;100.00;95309.75;5052802;28;20541;-80
2023/06/05 03:47:35;;;;;;;14.10;11.40;;;;;;;18.93;98.04;95309.72;5053365;28;20532;-80
2023/06/05 03:50:02;;;;;;;15.20;10.90;;;;;;;19.20;96.11;95313.78;5053835;28;20525;-79
2023/06/05 03:52:29;;;;;;;12.53;11.10;;;;;;;19.40;94.50;95324.84;5052509;28;20959;-80
2023/06/05 03:54:57;;;;;;;11.87;10.33;;;;;;;19.64;96.76;95322.06;5053362;28;20435;-79
2023/06/05 03:57:24;;;;;;;11.10;9.80;;;;;;;19.83;97.09;95317.31;5034715;28;20442;-80
2023/06/05 03:59:51;;;;;;;14.40;11.13;;;;;;;19.99;94.21;95315.38;5053103;28;20515;-83
2023/06/05 04:02:17;;;;;;;13.03;10.90;;;;;;;20.06;90.74;95312.81;5053681;28;20469;-82
2023/06/05 04:04:44;;;;;;;11.53;10.43;;;;;;;20.21;91.09;95327.00;5053255;28;20435;-82
2023/06/05 04:07:11;;;;;;;11.33;10.30;;;;;;;20.17;90.34;95320.38;5053426;28;20453;-80
2023/06/05 04:09:38;;;;;;;17.50;11.17;;;;;;;20.12;93.23;95322.75;5053133;28;20829;-79
2023/06/05 04:12:07;;;;;;;12.10;10.90;;;;;;;20.02;91.49;95322.19;5053042;28;20450;-80
2023/06/05 04:14:34;;;;;;;16.53;11.30;;;;;;;19.94;93.40;95317.72;5053484;28;20433;-80
2023/06/05 04:17:01;;;;;;;11.97;10.80;;;;;;;20.02;93.81;95315.03;5018448;28;20438;-79
2023/06/05 04:19:28;;;;;;;15.27;12.50;;;;;;;20.21;94.50;95312.84;5034358;28;20932;-79
2023/06/05 04:21:55;;;;;;;14.93;11.00;;;;;;;20.41;92.04;95322.88;5052952;28;20487;-79
2023/06/05 04:24:21;;;;;;;13.10;11.57;;;;;;;20.66;92.24;95318.16;5052841;28;20448;-80
2023/06/05 04:26:49;;;;;;;18.13;11.77;;;;;;;20.88;88.31;95321.78;5053027;28;20449;-80
2023/06/05 04:29:18;;;;;;;22.63;11.43;;;;;;;21.19;87.12;95320.78;5053122;28;20911;-81
2023/06/05 04:31:47;;;;;;;13.10;11.00;;;;;;;21.53;85.33;95326.38;5052709;28;20436;-81
2023/06/05 04:34:14;;;;;;;13.90;10.77;;;;;;;21.98;83.75;95323.63;5052980;28;20450;-80
2023/06/05 04:36:41;;;;;;;16.37;11.97;;;;;;;22.17;82.64;95331.03;5052648;28;20523;-80
2023/06/05 04:39:14;;;;;;;15.13;11.80;;;;;;;22.05;81.55;95330.72;5053177;28;20450;-78
2023/06/05 04:41:44;;;;;;;23.00;11.80;;;;;;;21.96;82.13;95324.63;5051791;28;20571;-81
2023/06/05 04:44:12;;;;;;;13.20;12.00;;;;;;;21.80;83.19;95324.03;5052561;28;20477;-81
2023/06/05 04:46:42;;;;;;;19.80;12.80;;;;;;;21.75;84.04;95326.44;5052517;28;20470;-82
2023/06/05 04:49:11;;;;;;;16.13;12.00;;;;;;;21.66;83.33;95320.38;5053003;28;20801;-81
2023/06/05 04:51:37;;;;;;;15.33;12.77;;;;;;;21.39;83.73;95329.06;5052630;28;20513;-81
2023/06/05 04:54:05;;;;;;;25.00;14.33;;;;;;;21.25;84.91;95325.41;5014126;28;20839;-81
2023/06/05 04:56:34;;;;;;;19.67;13.33;;;;;;;21.16;86.66;95321.16;5049445;28;20438;-81
2023/06/05 04:59:02;;;;;;;14.80;11.63;;;;;;;20.94;87.34;95317.56;5052980;28;20458;-81
2023/06/05 05:01:29;;;;;;;15.27;13.67;;;;;;;20.82;88.19;95324.38;5052471;28;20534;-80
2023/06/05 05:03:57;;;;;;;15.70;14.20;;;;;;;20.89;88.47;95319.94;5052312;28;20521;-80
2023/06/05 05:06:25;;;;;;;28.43;13.80;;;;;;;21.19;97.71;95315.44;5052241;28;20446;-80
2023/06/05 05:08:52;;;;;;;16.53;13.70;;;;;;;21.67;92.81;95315.84;5052327;28;20490;-81
2023/06/05 05:11:19;;;;;;;22.10;15.10;;;;;;;21.94;85.03;95318.63;5052577;28;20452;-81
2023/06/05 05:13:46;;;;;;;13.80;12.37;;;;;;;22.22;86.43;95324.09;5052666;28;20450;-81
2023/06/05 05:16:13;;;;;;;30.33;12.50;;;;;;;22.47;84.45;95323.69;5052852;28;20807;-83
2023/06/05 05:18:41;;;;;;;14.30;11.83;;;;;;;22.89;82.70;95322.00;5055728;28;20533;-79
2023/06/05 05:21:09;;;;;;;14.77;11.43;;;;;;;23.32;80.83;95328.84;5055319;28;21011;-80
2023/06/05 05:23:36;;;;;;;16.45;12.73;;;;;;;23.62;79.25;95328.63;5054787;28;20483;-79
2023/06/05 05:26:04;;;;;;;19.53;12.77;;;;;;;23.93;78.47;95330.78;5053217;28;20264;-80
2023/06/05 05:28:31;;;;;;;12.30;11.00;;;;;;;24.10;77.07;95332.91;5045695;28;20985;-80
2023/06/05 05:30:58;;;;;;;14.50;11.97;;;;;;;23.95;74.55;95326.88;5055796;28;20449;-81
2023/06/05 05:33:25;;;;;;;14.27;12.57;;;;;;;22.96;79.59;95320.19;5055511;28;20461;-79
2023/06/05 05:35:52;;;;;;;23.07;13.50;;;;;;;21.94;84.65;95317.81;5054645;28;20455;-79
2023/06/05 05:38:20;;;;;;;15.90;13.60;;;;;;;21.67;87.05;95315.84;5052060;28;20454;-81
2023/06/05 05:40:47;;;;;;;14.93;13.27;;;;;;;21.39;90.17;95313.88;5055302;28;20460;-81
2023/06/05 05:43:15;;;;;;;18.87;13.37;;;;;;;21.47;90.12;95320.97;5055575;28;20542;-81
2023/06/05 05:45:43;;;;;;;14.50;12.03;;;;;;;21.59;89.42;95314.94;5054912;28;20472;-81
2023/06/05 05:48:11;;;;;;;17.13;13.10;;;;;;;21.99;89.71;95306.56;5020394;28;20472;-82
2023/06/05 05:50:37;;;;;;;19.30;13.30;;;;;;;22.48;86.76;95315.47;5035271;28;20467;-80
2023/06/05 05:53:04;;;;;;;16.40;13.03;;;;;;;22.97;85.83;95305.78;5049144;28;20978;-81
2023/06/05 05:55:32;;;;;;;13.53;12.07;;;;;;;23.42;83.30;95312.44;5055314;28;21051;-80
2023/06/05 05:57:59;;;;;;;16.57;12.93;;;;;;;23.40;81.26;95315.28;5042329;28;20450;-80
2023/06/05 06:00:27;;;;;;;14.30;11.33;;;;;;;23.36;82.44;95302.50;5055438;28;20490;-81
2023/06/05 06:02:54;;;;;;;17.43;13.43;;;;;;;22.83;83.50;95299.50;5035127;28;20491;-81
2023/06/05 06:05:21;;;;;;;15.20;12.27;;;;;;;22.79;84.56;95293.69;5037543;28;20453;-80
2023/06/05 06:07:48;;;;;;;15.17;12.30;;;;;;;22.80;85.55;95295.34;5048446;28;20463;-80
2023/06/05 06:10:15;;;;;;;14.67;12.20;;;;;;;22.48;85.49;95302.09;5038389;28;20864;-80
2023/06/05 06:12:44;;;;;;;15.07;13.50;;;;;;;22.81;87.51;95296.22;5054289;28;20526;-80
2023/06/05 06:15:11;;;;;;;12.60;11.27;;;;;;;22.94;82.52;95303.50;5041340;28;20448;-80
2023/06/05 06:17:38;;;;;;;15.27;11.83;;;;;;;23.25;83.97;95300.41;5037058;28;20526;-80
2023/06/05 06:20:06;;;;;;;16.33;11.87;;;;;;;23.45;81.43;95310.19;5049730;28;20946;-81
2023/06/05 06:22:33;;;;;;;14.83;12.63;;;;;;;23.69;78.87;95310.72;5053652;28;20480;-80
2023/06/05 06:25:00;;;;;;;17.30;13.10;;;;;;;23.42;79.24;95305.25;5053368;28;20491;-80
2023/06/05 06:27:27;;;;;;;18.30;12.73;;;;;;;23.74;79.24;95306.41;5052939;28;20449;-80
2023/06/05 06:29:55;;;;;;;14.50;11.57;;;;;;;23.78;78.37;95307.66;5053167;28;20445;-80
2023/06/05 06:32:23;;;;;;;17.73;13.50;;;;;;;23.74;78.55;95305.59;5053117;28;20463;-80
2023/06/05 06:34:50;;;;;;;22.83;13.87;;;;;;;23.85;78.28;95302.31;5053548;28;20447;-80
2023/06/05 06:37:17;;;;;;;14.00;12.60;;;;;;;24.03;75.62;95304.44;5053173;28;20448;-80
2023/06/05 06:39:44;;;;;;;14.40;12.60;;;;;;;24.13;75.89;95296.00;5053231;28;20438;-80
2023/06/05 06:42:12;;;;;;;15.13;13.20;;;;;;;24.08;75.16;95301.97;5053251;28;20633;-80
2023/06/05 06:44:39;;;;;;;14.40;12.60;;;;;;;24.22;75.19;95302.81;5053119;28;20503;-80
2023/06/05 06:47:07;;;;;;;14.90;12.80;;;;;;;24.57;76.21;95295.44;5053294;28;20492;-80
2023/06/05 06:49:34;;;;;;;15.13;12.57;;;;;;;24.37;74.23;95290.06;5052827;28;20492;-80
2023/06/05 06:52:01;;;;;;;15.23;13.67;;;;;;;23.98;74.51;95296.97;5053326;28;20878;-80
2023/06/05 06:54:28;;;;;;;17.20;13.03;;;;;;;23.54;76.98;95277.88;5052779;28;20453;-80
2023/06/05 06:56:55;;;;;;;15.47;12.23;;;;;;;23.86;77.81;95282.53;5052706;28;20973;-80
2023/06/05 06:59:22;;;;;;;13.30;11.90;;;;;;;24.14;75.49;95285.06;5052427;28;20440;-80
2023/06/05 07:02:11;;;;;;;12.40;11.10;;;;;;;24.46;74.75;95283.47;5052824;28;20471;-80
2023/06/05 07:04:38;;;;;;;14.93;12.10;;;;;;;24.25;72.96;95291.66;5052630;28;20532;-80
2023/06/05 07:07:06;;;;;;;14.60;12.30;;;;;;;23.55;75.62;95274.97;5053047;28;20511;-80
2023/06/05 07:09:32;;;;;;;14.67;13.13;;;;;;;23.53;78.36;95281.56;5017690;28;20449;-80
2023/06/05 07:12:04;;;;;;;14.73;12.27;;;;;;;23.77;75.44;95278.38;5052773;28;20448;-80
2023/06/05 07:14:31;;;;;;;18.93;12.20;;;;;;;23.73;74.05;95287.88;5052507;28;20472;-80
2023/06/05 07:16:59;;;;;;;12.40;11.20;;;;;;;23.79;75.86;95292.41;5052665;28;20483;-80
2023/06/05 07:19:28;;;;;;;15.77;13.23;;;;;;;23.08;79.59;95281.97;5052218;28;20509;-80
2023/06/05 07:21:56;;;;;;;18.63;13.70;;;;;;;22.73;80.02;95272.25;5052524;28;20530;-80
2023/06/05 07:24:24;;;;;;;17.67;14.93;;;;;;;22.80;80.93;95265.09;5052127;28;20484;-80
2023/06/05 07:26:51;;;;;;;18.53;13.60;;;;;;;23.10;81.43;95279.09;5052423;28;20456;-80
2023/06/05 07:29:18;;;;;;;17.03;13.97;;;;;;;23.09;77.67;95269.41;5052373;28;20448;-80
2023/06/05 07:31:45;;;;;;;19.47;14.13;;;;;;;23.22;77.08;95280.19;5052139;28;21012;-80
2023/06/05 07:34:13;;;;;;;20.03;14.30;;;;;;;23.05;78.69;95278.88;5052038;28;20452;-80
2023/06/05 07:36:41;;;;;;;17.33;14.90;;;;;;;23.16;78.74;95276.47;5052353;28;20884;-80
2023/06/05 07:39:08;;;;;;;14.43;10.87;;;;;;;23.24;77.09;95288.84;5051655;28;20448;-80
2023/06/05 07:41:35;;;;;;;13.90;11.90;;;;;;;23.51;77.11;95279.09;5051730;28;20448;-80
2023/06/05 07:44:02;;;;;;;14.10;12.43;;;;;;;24.09;74.58;95287.53;5051729;28;20537;-80
2023/06/05 07:46:28;;;;;;;17.83;9.73;;;;;;;24.54;71.21;95302.03;5051866;28;20799;-80
2023/06/05 07:48:55;;;;;;;11.23;10.10;;;;;;;24.64;68.38;95312.38;5051931;28;20978;-80
2023/06/05 07:51:22;;;;;;;14.30;12.17;;;;;;;24.89;71.16;95305.34;5051907;28;20460;-80
2023/06/05 07:53:50;;;;;;;16.93;9.30;;;;;;;24.34;66.93;95301.22;5051875;28;20529;-81
2023/06/05 07:56:17;;;;;;;16.77;9.93;;;;;;;24.05;68.59;95305.06;5016676;28;20848;-80
2023/06/05 07:58:44;;;;;;;11.20;10.20;;;;;;;24.52;71.68;95298.72;5016403;28;20521;-80
2023/06/05 08:01:11;;;;;;;12.77;10.57;;;;;;;24.58;67.70;95305.97;5051975;28;21181;-80
2023/06/05 08:03:38;;;;;;;11.67;10.10;;;;;;;24.82;67.34;95301.00;5051647;28;20576;-80
2023/06/05 08:06:05;;;;;;;11.23;10.03;;;;;;;25.20;67.44;95303.88;5033114;28;20449;-80
2023/06/05 08:08:32;;;;;;;13.47;11.50;;;;;;;24.72;69.99;95301.44;5016500;28;20495;-80
2023/06/05 08:11:00;;;;;;;18.40;12.20;;;;;;;25.08;71.31;95292.09;5051937;28;20444;-80
2023/06/05 08:13:27;;;;;;;16.73;12.30;;;;;;;25.14;70.67;95289.41;5052043;28;20476;-80
2023/06/05 08:15:54;;;;;;;14.47;11.83;;;;;;;25.44;69.35;95299.66;5051676;28;20882;-80
2023/06/05 08:18:21;;;;;;;14.33;10.50;;;;;;;25.09;67.31;95305.31;5051622;28;20434;-80
2023/06/05 08:20:48;;;;;;;14.30;11.20;;;;;;;25.15;66.85;95301.78;5032732;28;20850;-80
2023/06/05 08:23:16;;;;;;;12.17;9.90;;;;;;;25.05;67.68;95309.47;5051912;28;20483;-80
2023/06/05 08:25:44;;;;;;;12.53;10.40;;;;;;;24.92;66.69;95306.78;5017136;28;20454;-80
2023/06/05 08:28:12;;;;;;;12.90;11.03;;;;;;;24.76;70.89;95305.34;5051643;28;20445;-80
2023/06/05 08:30:38;;;;;;;12.93;11.30;;;;;;;24.72;70.13;95301.44;5051453;28;20504;-80
2023/06/05 08:33:05;;;;;;;14.40;11.30;;;;;;;24.51;70.76;95299.75;5016277;28;20445;-80
2023/06/05 08:35:32;;;;;;;14.20;11.53;;;;;;;24.41;71.80;95302.03;5032551;28;20956;-79
2023/06/05 08:37:59;;;;;;;13.60;11.07;;;;;;;24.62;72.44;95309.91;5051368;28;20499;-79
2023/06/05 08:40:29;;;;;;;12.07;10.57;;;;;;;24.40;70.02;95303.06;5016565;28;20452;-78
2023/06/05 08:42:56;;;;;;;14.57;10.63;;;;;;;24.31;71.33;95299.78;5050886;28;21014;-79
2023/06/05 08:45:24;;;;;;;26.60;11.50;;;;;;;24.27;71.71;95301.16;5051337;28;20529;-78
2023/06/05 08:47:52;;;;;;;16.70;10.47;;;;;;;24.39;72.04;95301.44;5051128;28;20897;-79
2023/06/05 08:50:19;;;;;;;11.00;9.77;;;;;;;24.29;71.88;95304.53;5051500;28;20446;-79
2023/06/05 08:52:49;;;;;;;16.73;10.93;;;;;;;24.30;70.78;95294.63;5054671;28;20860;-80
2023/06/05 08:55:17;;;;;;;13.07;10.20;;;;;;;24.36;70.84;95305.34;5055392;28;20448;-79
2023/06/05 08:57:44;;;;;;;20.03;10.27;;;;;;;24.11;72.03;95301.56;5055115;28;20444;-80
2023/06/05 09:00:12;;;;;;;14.43;11.27;;;;;;;23.98;71.80;95299.66;5055210;28;20449;-80
2023/06/05 09:02:43;;;;;;;11.60;10.40;;;;;;;23.60;73.61;95298.53;5054985;28;20460;-80
2023/06/05 09:05:11;;;;;;;14.87;10.70;;;;;;;23.55;74.37;95295.59;5020330;28;20453;-80
2023/06/05 09:07:37;;;;;;;14.77;11.50;;;;;;;23.24;74.84;95290.72;5054840;28;20811;-80
2023/06/05 09:10:05;;;;;;;13.40;10.20;;;;;;;23.10;75.14;95306.69;5054959;28;20544;-80
2023/06/05 09:12:32;;;;;;;15.43;10.83;;;;;;;23.05;75.41;95294.94;5054486;28;20656;-80
2023/06/05 09:14:59;;;;;;;13.33;10.43;;;;;;;23.07;76.11;95293.69;5054685;28;20493;-80
2023/06/05 09:17:25;;;;;;;15.27;10.60;;;;;;;22.96;76.29;95293.44;5054639;28;20443;-80
2023/06/05 09:19:54;;;;;;;15.23;10.47;;;;;;;22.75;78.00;95299.63;5054955;28;20455;-80
2023/06/05 09:22:34;;;;;;;12.60;10.47;;;;;;;22.76;78.25;95315.50;5054621;28;20454;-80
2023/06/05 09:25:02;;;;;;;16.10;10.90;;;;;;;22.77;77.67;95317.16;5035575;28;20581;-80
2023/06/05 09:27:28;;;;;;;13.10;11.70;;;;;;;22.76;79.13;95312.00;5054780;28;20454;-80
2023/06/05 09:30:03;;;;;;;14.23;11.27;;;;;;;22.76;81.46;95317.34;5054565;28;20444;-80
2023/06/05 09:32:30;;;;;;;13.60;11.47;;;;;;;22.71;81.29;95320.59;5054498;28;20532;-80
2023/06/05 09:35:00;;;;;;;14.73;10.47;;;;;;;22.68;81.56;95318.31;5054259;28;20458;-80
2023/06/05 09:37:35;;;;;;;13.20;11.00;;;;;;;22.64;81.72;95319.75;5054574;28;20458;-80
2023/06/05 09:40:01;;;;;;;20.17;10.80;;;;;;;22.63;82.14;95319.94;5054515;28;20453;-80
2023/06/05 09:42:35;;;;;;;17.07;10.53;;;;;;;22.63;81.28;95314.59;5054235;28;20861;-80
2023/06/05 09:45:04;;;;;;;13.53;10.37;;;;;;;22.62;81.23;95313.75;5053976;28;20554;-80
2023/06/05 09:47:31;;;;;;;14.43;10.33;;;;;;;22.64;80.86;95321.59;5054187;28;20448;-80
2023/06/05 09:49:59;;;;;;;21.80;12.57;;;;;;;22.67;80.47;95307.81;5054468;28;20454;-83
2023/06/05 09:52:26;;;;;;;12.13;10.33;;;;;;;22.80;83.66;95318.59;5055811;28;20431;-83
2023/06/05 09:54:56;;;;;;;21.03;10.90;;;;;;;22.85;83.35;95311.69;5054497;28;20453;-83
2023/06/05 09:57:26;;;;;;;14.90;10.37;;;;;;;22.89;82.84;95316.66;5054090;28;20536;-83
2023/06/05 09:59:55;;;;;;;12.00;10.73;;;;;;;22.80;81.34;95314.06;5054206;28;20448;-83
2023/06/05 10:02:25;;;;;;;14.73;11.07;;;;;;;22.77;81.09;95313.66;5053397;28;20449;-82
2023/06/05 10:04:58;;;;;;;15.13;10.90;;;;;;;22.80;82.62;95311.41;5053988;28;20490;-83
2023/06/05 10:07:26;;;;;;;12.33;10.10;;;;;;;22.75;83.04;95305.00;5054211;28;20448;-83
2023/06/05 10:09:55;;;;;;;10.40;9.27;;;;;;;22.78;84.54;95294.72;5054033;28;20452;-82
2023/06/05 10:12:23;;;;;;;16.43;10.40;;;;;;;22.79;84.39;95292.88;5053915;28;20445;-83
2023/06/05 10:14:51;;;;;;;13.30;11.47;;;;;;;22.81;83.34;95305.06;5054138;28;20456;-82
2023/06/05 10:17:19;;;;;;;11.90;10.30;;;;;;;22.92;83.28;95293.00;5054031;28;20445;-83
2023/06/05 10:19:46;;;;;;;11.27;9.50;;;;;;;23.02;81.69;95293.47;5053846;28;20506;-83
2023/06/05 10:22:13;;;;;;;13.00;9.90;;;;;;;23.09;79.51;95293.50;5053631;28;20444;-83
2023/06/05 10:24:45;;;;;;;11.17;9.93;;;;;;;23.16;78.98;95297.88;5053578;28;20483;-83
2023/06/05 10:27:39;;;;;;;12.10;9.63;;;;;;;23.29;79.42;95291.75;5053396;28;20825;-83
2023/06/05 10:30:57;;;;;;;13.67;10.27;;;;;;;23.35;76.58;95299.00;5034614;28;20951;-82
2023/06/05 10:33:37;;;;;;;12.23;9.83;;;;;;;23.33;74.94;95293.00;5012740;28;20928;-83
2023/06/05 10:36:16;;;;;;;10.37;8.53;;;;;;;23.39;75.33;95286.84;5012435;28;20927;-83
2023/06/05 10:38:44;;;;;;;12.83;9.50;;;;;;;23.38;74.89;95282.53;5012610;28;20534;-79
2023/06/05 10:41:12;;;;;;;12.43;9.67;;;;;;;23.42;74.88;95277.63;5012253;28;20454;-81
2023/06/05 10:43:48;;;;;;;13.73;10.33;;;;;;;23.44;75.50;95275.56;5011581;28;20497;-79
2023/06/05 10:46:32;;;;;;;13.43;11.13;;;;;;;23.48;77.06;95280.31;5012159;28;20450;-79
2023/06/05 10:49:15;;;;;;;15.43;10.63;;;;;;;23.53;78.09;95276.22;5011940;28;20530;-79
2023/06/05 10:51:44;;;;;;;11.70;9.97;;;;;;;23.53;77.34;95279.72;5011925;28;20450;-79
2023/06/05 10:54:15;;;;;;;12.90;11.00;;;;;;;23.56;78.34;95275.84;5011980;28;20447;-80
2023/06/05 10:57:01;;;;;;;13.13;10.17;;;;;;;23.60;78.87;95272.56;5012028;28;20465;-80
2023/06/05 10:59:29;;;;;;;11.97;8.90;;;;;;;23.57;78.36;95266.78;4962895;28;20938;-79
2023/06/05 11:02:27;;;;;;;13.50;11.37;;;;;;;23.65;78.50;95261.22;4979107;28;20435;-80
2023/06/05 11:05:10;;;;;;;11.27;10.10;;;;;;;23.70;76.16;95261.44;5041450;28;20482;-80
2023/06/05 11:07:37;;;;;;;11.23;9.67;;;;;;;23.74;75.48;95257.34;5053643;28;20453;-80
2023/06/05 11:10:09;;;;;;;10.37;9.37;;;;;;;23.78;75.50;95254.06;5054032;28;20456;-80
2023/06/05 11:12:57;;;;;;;18.30;10.53;;;;;;;23.86;79.03;95253.03;5053796;28;20480;-80
2023/06/05 11:15:46;;;;;;;12.60;11.33;;;;;;;23.81;75.91;95249.31;5053659;28;20457;-79
2023/06/05 11:18:32;;;;;;;11.10;10.00;;;;;;;23.85;77.41;95254.06;5053558;28;20960;-79
2023/06/05 11:21:01;;;;;;;11.47;10.17;;;;;;;23.83;75.82;95244.59;5034892;28;20441;-80
2023/06/05 11:23:29;;;;;;;12.33;8.73;;;;;;;23.83;75.37;95240.06;5053299;28;20484;-80